GMMC/CAS METAR and TAF weather

Enter ICAO airport designator
Station Type Date Time Source
GMMC METAR 2018/10/20 20:00 UTC NOAA

GMMC 202000Z 30006KT 9999 SCT016 20/14 Q1013


Station Type Date Time Source
GMMC Decoded METAR 2018/10/20 20:00 UTC NOAA

Casablanca, Morocco (GMMC) 33-34N 007-40W 62M
Oct 20, 2018 - 04:00 PM EDT / 2018.10.20 2000 UTC
Wind: from the WNW (300 degrees) at 7 MPH (6 KT):0
Visibility: greater than 7 mile(s):0
Sky conditions: partly cloudy
Temperature: 68 F (20 C)
Dew Point: 57 F (14 C)
Relative Humidity: 68%
Pressure (altimeter): 29.91 in. Hg (1013 hPa)
ob: GMMC 202000Z 30006KT 9999 SCT016 20/14 Q1013
cycle: 20

Station Type Date Time Source
GMMC TAF 2016/05/22 17:00 UTC NOAA

FTMC31 GMMC 221700 RRA TAF LPPT 221700Z 2218/2324 34013KT CAVOK
BECMG 2221/2224 34007KT
BECMG 2310/2312 VRB03KT


Example: see airport list